Time;durP1;ratioP1;P1;durP2;ratioP2;P2;SDS_P1;SDS_P2;PMS_P1;PMS_P2;Temp;Humidity;BMP_temperature;BMP_pressure;BME280_temperature;BME280_humidity;BME280_pressure;Samples;Min_cycle;Max_cycle;Signal;HPM_P1;HPM_P2
2022/12/21 00:00:22;;;;;;;59.65;23.40;;;8.40;99.90;;;;;;5058330;28;20043;-70
2022/12/21 00:02:48;;;;;;;63.15;24.73;;;8.40;99.90;;;;;;5060789;28;20048;-69
2022/12/21 00:05:13;;;;;;;63.00;24.48;;;8.40;99.90;;;;;;5066240;28;20100;-70
2022/12/21 00:07:39;;;;;;;64.25;22.75;;;8.30;99.90;;;;;;5065283;28;20063;-69
2022/12/21 00:10:05;;;;;;;63.85;22.63;;;8.20;99.90;;;;;;5062642;28;20052;-69
2022/12/21 00:12:31;;;;;;;66.07;23.27;;;8.10;99.90;;;;;;5066048;28;20049;-70
2022/12/21 00:14:57;;;;;;;60.50;22.27;;;8.20;99.90;;;;;;5066844;28;20067;-70
2022/12/21 00:17:22;;;;;;;67.10;24.33;;;8.20;99.90;;;;;;5066507;28;20076;-70
2022/12/21 00:19:48;;;;;;;66.65;22.08;;;8.20;99.90;;;;;;5070728;28;20080;-69
2022/12/21 00:22:14;;;;;;;70.32;24.67;;;8.10;99.90;;;;;;5081195;28;20063;-70
2022/12/21 00:24:40;;;;;;;66.10;23.15;;;8.10;99.90;;;;;;5066782;28;20103;-70
2022/12/21 00:27:05;;;;;;;68.25;23.33;;;8.20;99.90;;;;;;5066493;28;20048;-70
2022/12/21 00:29:31;;;;;;;59.95;22.73;;;8.10;99.90;;;;;;5053842;28;20113;-70
2022/12/21 00:31:57;;;;;;;64.93;23.27;;;8.00;99.90;;;;;;5055321;28;20634;-69
2022/12/21 00:34:23;;;;;;;56.05;21.88;;;8.10;99.90;;;;;;5079656;28;20087;-70
2022/12/21 00:36:49;;;;;;;65.20;21.48;;;8.00;99.90;;;;;;5050238;28;20055;-69
2022/12/21 00:39:16;;;;;;;63.42;21.58;;;7.80;99.90;;;;;;5064911;28;20097;-70
2022/12/21 00:41:42;;;;;;;71.97;21.90;;;7.80;99.90;;;;;;5050753;28;20076;-70
2022/12/21 00:44:09;;;;;;;72.72;21.25;;;7.70;99.90;;;;;;5066051;28;20049;-70
2022/12/21 00:46:35;;;;;;;62.92;22.15;;;7.60;99.90;;;;;;5051134;28;20045;-70
2022/12/21 00:49:05;;;;;;;74.70;23.52;;;7.60;99.90;;;;;;5045838;28;20109;-70
2022/12/21 00:51:33;;;;;;;69.30;23.08;;;7.60;99.90;;;;;;5051589;28;20047;-69
2022/12/21 00:54:00;;;;;;;72.20;23.27;;;7.60;99.90;;;;;;5081430;28;20047;-69
2022/12/21 00:56:26;;;;;;;68.50;21.77;;;7.70;99.90;;;;;;5046670;28;20049;-70
2022/12/21 00:58:52;;;;;;;80.60;23.15;;;7.50;99.90;;;;;;5046673;28;20057;-69
2022/12/21 01:01:27;;;;;;;82.70;24.52;;;7.50;99.90;;;;;;5057780;28;20038;-70
2022/12/21 01:03:54;;;;;;;78.32;23.73;;;7.60;99.90;;;;;;5044608;28;20049;-70
2022/12/21 01:06:25;;;;;;;71.72;23.90;;;7.60;99.90;;;;;;5052807;28;20040;-69
2022/12/21 01:08:51;;;;;;;93.60;25.75;;;7.60;99.90;;;;;;5068048;28;20052;-69
2022/12/21 01:11:18;;;;;;;86.78;25.27;;;7.60;99.90;;;;;;5064183;28;20045;-70
2022/12/21 01:13:45;;;;;;;89.20;24.92;;;7.60;99.90;;;;;;5047876;28;20105;-70
2022/12/21 01:16:21;;;;;;;95.38;24.25;;;7.50;99.90;;;;;;5052996;28;20048;-70
2022/12/21 01:18:48;;;;;;;72.18;23.45;;;7.60;99.90;;;;;;5064422;28;20041;-69
2022/12/21 01:21:16;;;;;;;83.43;24.25;;;7.70;99.90;;;;;;5050089;28;20075;-69
2022/12/21 01:23:42;;;;;;;84.13;24.23;;;7.80;99.90;;;;;;5061248;28;20040;-69
2022/12/21 01:26:08;;;;;;;76.55;22.60;;;7.70;99.90;;;;;;5061448;28;20045;-69
2022/12/21 01:28:34;;;;;;;74.65;24.05;;;7.80;99.90;;;;;;5062118;28;20048;-69
2022/12/21 01:31:04;;;;;;;77.60;23.35;;;7.70;99.90;;;;;;5057544;28;20044;-69
2022/12/21 01:33:30;;;;;;;86.25;22.48;;;7.70;99.90;;;;;;5064131;28;20529;-69
2022/12/21 01:35:55;;;;;;;71.95;22.08;;;7.80;99.90;;;;;;5049616;28;20060;-69
2022/12/21 01:38:21;;;;;;;62.97;20.90;;;7.80;99.90;;;;;;5064149;28;20040;-69
2022/12/21 01:40:47;;;;;;;74.70;21.27;;;7.90;99.90;;;;;;5062156;28;20083;-69
2022/12/21 01:43:42;;;;;;;73.85;19.90;;;7.70;99.90;;;;;;5065196;28;20080;-69
2022/12/21 01:46:31;;;;;;;72.88;21.08;;;7.80;99.90;;;;;;5069533;28;20059;-69
2022/12/21 01:49:03;;;;;;;75.55;21.48;;;7.80;99.90;;;;;;5066346;28;20049;-69
2022/12/21 01:51:30;;;;;;;71.00;21.20;;;7.80;99.90;;;;;;5066838;28;20041;-69
2022/12/21 01:54:01;;;;;;;86.18;24.02;;;7.70;99.90;;;;;;5078845;28;20480;-69
2022/12/21 01:56:34;;;;;;;100.43;23.95;;;7.80;99.90;;;;;;5065514;28;20049;-69
2022/12/21 01:59:08;;;;;;;89.68;21.75;;;7.60;99.90;;;;;;5062192;28;20049;-69
2022/12/21 02:01:34;;;;;;;71.45;22.58;;;7.80;99.90;;;;;;5063857;28;20051;-69
2022/12/21 02:04:00;;;;;;;76.43;21.30;;;7.70;99.90;;;;;;5055990;28;20121;-70
2022/12/21 02:06:32;;;;;;;74.60;20.95;;;7.60;99.90;;;;;;5080304;28;20096;-69
2022/12/21 02:09:00;;;;;;;67.30;19.67;;;7.70;99.90;;;;;;5061317;28;20049;-69
2022/12/21 02:11:26;;;;;;;63.83;19.70;;;7.60;99.90;;;;;;5067715;28;20053;-69
2022/12/21 02:13:52;;;;;;;79.72;21.52;;;7.70;99.90;;;;;;5050298;28;20053;-69
2022/12/21 02:16:31;;;;;;;75.03;19.60;;;7.70;99.90;;;;;;5050175;28;20048;-69
2022/12/21 02:19:18;;;;;;;73.38;20.25;;;7.60;99.90;;;;;;5066382;28;20047;-70
2022/12/21 02:21:59;;;;;;;68.30;19.35;;;7.60;99.90;;;;;;5061584;28;20531;-68
2022/12/21 02:24:36;;;;;;;73.30;19.67;;;7.60;99.90;;;;;;5084847;28;20056;-69
2022/12/21 02:27:26;;;;;;;65.45;20.00;;;7.60;99.90;;;;;;5069580;28;20088;-69
2022/12/21 02:30:33;;;;;;;108.15;22.85;;;7.60;99.90;;;;;;5046951;28;20402;-68
2022/12/21 02:33:15;;;;;;;160.02;24.25;;;7.60;99.90;;;;;;5036719;28;20400;-68
2022/12/21 02:35:55;;;;;;;104.47;19.38;;;7.60;99.90;;;;;;5053406;28;20098;-69
2022/12/21 02:38:56;;;;;;;121.15;20.30;;;7.60;99.90;;;;;;5053151;28;20053;-69
2022/12/21 02:41:53;;;;;;;126.55;19.30;;;7.50;99.90;;;;;;5072694;28;20037;-70
2022/12/21 02:44:38;;;;;;;202.18;22.88;;;7.50;99.90;;;;;;5047315;28;20389;-70
2022/12/21 02:47:29;;;;;;;185.80;21.92;;;7.40;99.90;;;;;;5064773;28;20041;-70
2022/12/21 02:50:12;;;;;;;175.75;22.95;;;7.50;99.90;;;;;;5050845;28;20105;-70
2022/12/21 02:53:06;;;;;;;64.13;19.25;;;7.60;99.90;;;;;;5057970;28;20052;-70
2022/12/21 02:55:31;;;;;;;170.73;24.73;;;7.50;99.90;;;;;;5067016;28;20053;-70
2022/12/21 02:58:16;;;;;;;158.10;24.83;;;7.60;99.90;;;;;;5068088;28;20055;-70
2022/12/21 03:00:47;;;;;;;114.45;20.50;;;7.60;99.90;;;;;;5051968;28;20055;-70
2022/12/21 03:03:50;;;;;;;160.80;22.38;;;7.70;99.90;;;;;;5075522;28;20043;-70
2022/12/21 03:06:32;;;;;;;135.32;20.85;;;7.60;99.90;;;;;;5061549;28;20053;-70
2022/12/21 03:09:21;;;;;;;164.40;22.85;;;7.60;99.90;;;;;;5058888;28;20129;-70
2022/12/21 03:11:59;;;;;;;150.43;21.23;;;7.40;99.90;;;;;;5056168;28;20393;-70
2022/12/21 03:14:30;;;;;;;104.57;21.00;;;7.50;99.90;;;;;;5061099;28;20094;-70
2022/12/21 03:17:21;;;;;;;222.63;22.67;;;7.50;99.90;;;;;;5061597;28;20059;-70
2022/12/21 03:20:22;;;;;;;203.10;22.92;;;7.50;99.90;;;;;;5074636;28;20049;-70
2022/12/21 03:22:57;;;;;;;186.07;19.85;;;7.40;99.90;;;;;;5044932;28;20088;-70
2022/12/21 03:25:35;;;;;;;126.05;17.67;;;7.60;99.90;;;;;;5051270;28;20127;-70
2022/12/21 03:28:06;;;;;;;158.77;19.15;;;7.50;99.90;;;;;;5072975;28;20048;-70
2022/12/21 03:30:40;;;;;;;226.70;20.55;;;7.50;99.90;;;;;;5047737;28;20106;-70
2022/12/21 03:33:09;;;;;;;232.32;22.52;;;7.40;99.90;;;;;;5075778;28;20109;-70
2022/12/21 03:35:51;;;;;;;250.85;21.98;;;7.30;99.90;;;;;;5059834;28;20103;-70
2022/12/21 03:38:31;;;;;;;175.10;21.10;;;7.40;99.90;;;;;;5066902;28;20059;-70
2022/12/21 03:41:01;;;;;;;142.52;20.17;;;7.50;99.90;;;;;;5084186;28;20037;-70
2022/12/21 03:43:35;;;;;;;131.38;19.83;;;7.60;99.90;;;;;;5079921;28;20101;-70
2022/12/21 03:46:07;;;;;;;85.80;17.55;;;7.50;99.90;;;;;;5058001;28;20437;-70
2022/12/21 03:48:55;;;;;;;240.57;22.10;;;7.40;99.90;;;;;;5064943;28;20048;-70
2022/12/21 03:51:41;;;;;;;119.45;17.45;;;7.60;99.90;;;;;;5065385;28;20048;-70
2022/12/21 03:54:20;;;;;;;276.48;24.33;;;7.40;99.90;;;;;;5050596;28;20063;-69
2022/12/21 03:56:47;;;;;;;159.40;19.23;;;7.40;99.90;;;;;;5060334;28;20046;-69
2022/12/21 03:59:15;;;;;;;225.85;21.83;;;7.60;99.90;;;;;;5045947;28;20044;-68
2022/12/21 04:02:22;;;;;;;283.88;24.27;;;7.50;99.90;;;;;;5062571;28;20052;-69
2022/12/21 04:05:11;;;;;;;282.10;24.50;;;7.40;99.90;;;;;;5059462;28;20044;-68
2022/12/21 04:07:39;;;;;;;205.82;23.52;;;7.30;99.90;;;;;;5046091;28;20097;-69
2022/12/21 04:10:12;;;;;;;218.07;23.55;;;7.40;99.90;;;;;;5062586;28;20081;-69
2022/12/21 04:12:38;;;;;;;264.52;25.75;;;7.50;99.90;;;;;;5065798;28;20045;-69
2022/12/21 04:15:09;;;;;;;255.10;26.25;;;7.40;99.90;;;;;;5056579;28;20044;-69
2022/12/21 04:17:35;;;;;;;164.65;22.02;;;7.40;99.90;;;;;;5067019;28;20044;-69
2022/12/21 04:20:03;;;;;;;254.18;24.55;;;7.40;99.90;;;;;;5048619;28;20075;-70
2022/12/21 04:28:08;;;;;;;288.60;23.70;;;7.30;99.90;;;;;;5047691;28;20041;-70
2022/12/21 04:30:42;;;;;;;281.10;26.23;;;7.20;99.90;;;;;;5051189;28;20100;-70
2022/12/21 04:33:10;;;;;;;310.85;25.90;;;7.30;99.90;;;;;;5053554;28;20104;-70
2022/12/21 04:35:36;;;;;;;353.00;27.35;;;7.20;99.90;;;;;;5059316;28;20072;-70
2022/12/21 04:38:02;;;;;;;277.88;26.40;;;7.20;99.90;;;;;;5052447;28;20057;-70
2022/12/21 04:40:29;;;;;;;276.20;25.40;;;7.40;99.90;;;;;;5054649;28;20100;-70
2022/12/21 04:42:55;;;;;;;310.42;26.52;;;7.20;99.90;;;;;;5063019;28;20057;-70
2022/12/21 04:45:21;;;;;;;298.70;26.13;;;7.20;99.90;;;;;;5049283;28;20076;-70
2022/12/21 04:47:46;;;;;;;341.73;30.35;;;7.20;99.90;;;;;;5049307;28;20045;-70
2022/12/21 04:50:12;;;;;;;268.75;26.60;;;7.40;99.90;;;;;;5057722;28;20100;-70
2022/12/21 04:52:38;;;;;;;323.70;28.25;;;7.40;99.90;;;;;;5076465;28;20447;-70
2022/12/21 04:55:04;;;;;;;287.60;27.90;;;7.40;99.90;;;;;;5073000;28;20033;-70
2022/12/21 04:57:31;;;;;;;127.18;22.77;;;7.30;99.90;;;;;;5061898;28;20048;-70
2022/12/21 04:59:56;;;;;;;118.32;24.27;;;7.40;99.90;;;;;;5072502;28;20048;-70
2022/12/21 05:02:22;;;;;;;108.40;24.48;;;7.40;99.90;;;;;;5052019;28;20049;-70
2022/12/21 05:04:48;;;;;;;210.35;27.23;;;7.50;99.90;;;;;;5063370;28;20045;-70
2022/12/21 05:07:14;;;;;;;168.25;25.40;;;7.40;99.90;;;;;;5049293;28;20044;-70
2022/12/21 05:09:39;;;;;;;207.15;24.92;;;7.40;99.90;;;;;;5083879;28;20397;-70
2022/12/21 05:12:05;;;;;;;235.55;27.70;;;7.40;99.90;;;;;;5084995;28;20084;-70
2022/12/21 05:14:32;;;;;;;242.02;26.65;;;7.50;99.90;;;;;;5068214;28;20040;-70
2022/12/21 05:16:57;;;;;;;286.73;30.08;;;7.40;99.90;;;;;;5058948;28;20048;-70
2022/12/21 05:19:23;;;;;;;266.30;28.50;;;7.30;99.90;;;;;;5068728;28;20422;-70
2022/12/21 05:21:49;;;;;;;274.73;29.00;;;7.40;99.90;;;;;;5069222;28;20052;-71
2022/12/21 05:24:15;;;;;;;309.98;30.75;;;7.30;99.90;;;;;;5064269;28;20080;-69
2022/12/21 05:26:40;;;;;;;243.13;28.27;;;7.30;99.90;;;;;;5066253;28;20044;-70
2022/12/21 05:29:06;;;;;;;178.30;24.92;;;7.40;99.90;;;;;;5063897;28;20044;-70
2022/12/21 05:31:32;;;;;;;197.88;29.02;;;7.50;99.90;;;;;;5065616;28;20400;-70
2022/12/21 05:33:58;;;;;;;276.63;30.80;;;7.40;99.90;;;;;;5062767;28;20359;-68
2022/12/21 05:36:24;;;;;;;113.38;25.35;;;7.30;99.90;;;;;;5059018;28;20057;-71
2022/12/21 05:38:50;;;;;;;235.43;30.05;;;7.40;99.90;;;;;;5062235;28;20040;-71
2022/12/21 05:41:17;;;;;;;264.17;31.58;;;7.40;99.90;;;;;;5081653;28;20052;-71
2022/12/21 05:43:43;;;;;;;221.82;31.48;;;7.50;99.90;;;;;;5059252;28;20036;-71
2022/12/21 05:46:11;;;;;;;274.75;34.47;;;7.40;99.90;;;;;;5061555;28;20049;-71
2022/12/21 05:48:36;;;;;;;337.55;36.03;;;7.40;99.90;;;;;;5060343;28;20124;-69
2022/12/21 05:51:13;;;;;;;311.27;33.72;;;7.50;99.90;;;;;;5051736;28;20049;-69
2022/12/21 05:53:44;;;;;;;224.68;32.47;;;7.50;99.90;;;;;;5062505;28;20048;-69
2022/12/21 05:56:10;;;;;;;326.90;37.40;;;7.40;99.90;;;;;;5055384;28;20044;-69
2022/12/21 05:58:36;;;;;;;367.90;37.08;;;7.50;99.90;;;;;;5056597;28;20044;-69
2022/12/21 06:01:05;;;;;;;186.05;30.52;;;7.60;99.90;;;;;;5085724;28;20048;-69
2022/12/21 06:03:31;;;;;;;309.55;36.70;;;7.60;99.90;;;;;;5055129;28;20079;-69
2022/12/21 06:06:12;;;;;;;245.20;33.97;;;7.50;99.90;;;;;;5048062;28;20102;-70
2022/12/21 06:08:38;;;;;;;137.88;30.17;;;7.50;99.90;;;;;;5055901;28;20045;-70
2022/12/21 06:11:08;;;;;;;207.95;33.72;;;7.40;99.90;;;;;;5056353;28;20051;-70
2022/12/21 06:13:35;;;;;;;240.10;36.97;;;7.60;99.90;;;;;;5055293;28;20043;-69
2022/12/21 06:16:03;;;;;;;192.02;33.65;;;7.60;99.90;;;;;;5021712;28;20057;-71
2022/12/21 06:18:29;;;;;;;181.32;33.97;;;7.60;99.90;;;;;;5068638;28;20066;-71
2022/12/21 06:20:54;;;;;;;201.35;36.28;;;7.60;99.90;;;;;;5060580;28;20551;-71
2022/12/21 06:23:20;;;;;;;162.55;32.47;;;7.60;99.90;;;;;;5055449;28;20036;-70
2022/12/21 06:25:46;;;;;;;136.38;33.00;;;7.70;99.90;;;;;;5030200;28;20086;-71
2022/12/21 06:28:12;;;;;;;145.93;31.45;;;7.70;99.90;;;;;;5024872;28;20148;-71
2022/12/21 06:30:37;;;;;;;149.68;33.08;;;7.70;99.90;;;;;;5026046;28;20046;-70
2022/12/21 06:33:03;;;;;;;136.38;32.35;;;7.60;99.90;;;;;;5074370;28;20040;-69
2022/12/21 06:35:29;;;;;;;162.07;33.75;;;7.60;99.90;;;;;;5069138;28;20044;-70
2022/12/21 06:37:54;;;;;;;134.18;32.40;;;7.80;99.90;;;;;;5030807;28;20049;-71
2022/12/21 06:40:20;;;;;;;155.45;35.03;;;7.60;99.90;;;;;;5052529;28;20051;-69
2022/12/21 06:42:46;;;;;;;149.55;34.55;;;7.60;99.90;;;;;;5045699;28;20033;-70
2022/12/21 06:45:12;;;;;;;145.05;33.80;;;7.60;99.90;;;;;;5057702;28;20059;-69
2022/12/21 06:47:37;;;;;;;143.02;34.58;;;7.80;99.90;;;;;;5030328;28;20539;-70
2022/12/21 06:50:03;;;;;;;123.18;33.08;;;7.60;99.90;;;;;;5059495;28;20115;-72
2022/12/21 06:52:32;;;;;;;128.32;31.67;;;7.60;99.90;;;;;;5048910;28;20057;-71
2022/12/21 06:54:57;;;;;;;148.65;33.13;;;7.80;99.90;;;;;;5058604;28;20047;-73
2022/12/21 06:57:23;;;;;;;136.88;34.17;;;7.80;99.90;;;;;;5033138;28;20052;-72
2022/12/21 06:59:49;;;;;;;133.23;31.17;;;7.80;99.90;;;;;;5048532;28;20044;-73
2022/12/21 07:02:14;;;;;;;153.38;35.42;;;7.60;99.90;;;;;;5044247;28;20052;-72
2022/12/21 07:04:40;;;;;;;160.65;35.25;;;7.80;99.90;;;;;;5050932;28;20056;-72
2022/12/21 07:07:05;;;;;;;139.43;33.63;;;7.70;99.90;;;;;;5046588;28;20056;-69
2022/12/21 07:09:31;;;;;;;145.63;32.17;;;7.80;99.90;;;;;;5049069;28;20047;-69
2022/12/21 07:11:57;;;;;;;113.38;29.88;;;7.70;99.90;;;;;;5048621;28;20634;-69
2022/12/21 07:14:22;;;;;;;100.65;27.25;;;7.60;99.90;;;;;;5046862;28;20088;-69
2022/12/21 07:16:48;;;;;;;113.25;29.65;;;7.80;99.90;;;;;;5024213;28;20064;-68
2022/12/21 07:19:14;;;;;;;99.63;28.33;;;7.90;99.90;;;;;;5051875;28;20049;-68
2022/12/21 07:21:39;;;;;;;104.65;27.80;;;7.80;99.90;;;;;;5049304;28;20618;-68
2022/12/21 07:24:06;;;;;;;108.20;30.20;;;7.70;99.90;;;;;;5043021;28;20148;-69
2022/12/21 07:26:31;;;;;;;104.50;28.45;;;7.80;99.90;;;;;;5048729;28;20075;-68
2022/12/21 07:28:57;;;;;;;140.57;30.90;;;7.60;99.90;;;;;;5038049;28;20130;-67
2022/12/21 07:31:25;;;;;;;135.20;31.08;;;7.70;99.90;;;;;;5038376;28;20057;-66
2022/12/21 07:33:51;;;;;;;118.55;30.52;;;7.60;99.90;;;;;;5043880;28;20037;-67
2022/12/21 07:36:17;;;;;;;135.18;31.60;;;7.70;99.90;;;;;;5059262;28;20923;-67
2022/12/21 07:38:44;;;;;;;137.65;30.45;;;7.80;99.90;;;;;;5067878;28;20115;-67
2022/12/21 07:41:12;;;;;;;137.30;30.83;;;7.60;99.90;;;;;;5041321;28;20269;-66
2022/12/21 07:43:38;;;;;;;161.55;32.17;;;7.60;99.90;;;;;;5056930;28;20113;-66
2022/12/21 07:46:05;;;;;;;157.00;34.15;;;7.60;99.90;;;;;;5054263;28;20044;-67
2022/12/21 07:48:31;;;;;;;131.30;30.20;;;7.50;99.90;;;;;;5052333;28;20055;-67
2022/12/21 07:50:57;;;;;;;138.55;31.77;;;7.70;99.90;;;;;;5030391;28;20052;-68
2022/12/21 07:53:23;;;;;;;107.50;28.23;;;7.70;99.90;;;;;;5072163;28;20049;-67
2022/12/21 07:55:49;;;;;;;131.32;30.45;;;7.70;99.90;;;;;;5057216;28;20049;-67
2022/12/21 07:58:14;;;;;;;131.05;30.58;;;7.60;99.90;;;;;;5024142;28;20064;-66
2022/12/21 08:00:42;;;;;;;140.02;31.27;;;7.60;99.90;;;;;;5050096;28;20043;-66
2022/12/21 08:03:08;;;;;;;129.80;30.85;;;7.50;99.90;;;;;;5042998;28;20607;-66
2022/12/21 08:05:34;;;;;;;122.07;31.67;;;7.50;99.90;;;;;;5069950;28;20104;-66
2022/12/21 08:08:02;;;;;;;129.15;32.40;;;7.70;99.90;;;;;;5048548;28;20097;-67
2022/12/21 08:10:28;;;;;;;145.63;33.40;;;7.60;99.90;;;;;;5051357;28;20064;-67
2022/12/21 08:12:53;;;;;;;130.02;32.15;;;7.70;99.90;;;;;;5048362;28;20049;-67
2022/12/21 08:15:21;;;;;;;148.93;33.70;;;7.60;99.90;;;;;;5027073;28;20052;-67
2022/12/21 08:17:47;;;;;;;121.72;30.70;;;7.60;99.90;;;;;;5049183;28;20390;-66
2022/12/21 08:20:14;;;;;;;132.45;31.95;;;7.80;99.90;;;;;;5057769;28;20061;-67
2022/12/21 08:22:40;;;;;;;115.95;30.67;;;7.60;99.90;;;;;;5023363;28;20100;-67
2022/12/21 08:25:06;;;;;;;139.57;33.08;;;7.70;99.90;;;;;;5023544;28;20405;-68
2022/12/21 08:27:31;;;;;;;128.48;32.08;;;7.60;99.90;;;;;;5030826;28;20049;-67
2022/12/21 08:29:57;;;;;;;137.95;31.98;;;7.60;99.90;;;;;;5044044;28;20427;-67
2022/12/21 08:32:23;;;;;;;116.20;30.42;;;7.60;99.90;;;;;;5053411;28;20045;-66
2022/12/21 08:34:48;;;;;;;108.60;30.63;;;7.60;99.90;;;;;;5050114;28;20108;-66
2022/12/21 08:37:14;;;;;;;121.32;31.70;;;7.50;99.90;;;;;;5059674;28;20053;-67
2022/12/21 08:39:40;;;;;;;126.82;31.67;;;7.60;99.90;;;;;;5050597;28;20057;-66
2022/12/21 08:42:05;;;;;;;135.23;32.53;;;7.50;99.90;;;;;;5032935;28;20483;-67
2022/12/21 08:44:32;;;;;;;143.88;29.95;;;7.70;99.90;;;;;;5053526;28;20071;-68
2022/12/21 08:46:58;;;;;;;132.75;32.25;;;7.60;99.90;;;;;;5033170;28;20732;-67
2022/12/21 08:49:24;;;;;;;132.35;31.75;;;7.70;99.90;;;;;;5061374;28;20140;-68
2022/12/21 08:51:49;;;;;;;126.20;31.02;;;7.60;99.90;;;;;;5042366;28;21004;-66
2022/12/21 08:54:15;;;;;;;112.80;31.08;;;7.70;99.90;;;;;;5054894;28;20045;-67
2022/12/21 08:56:40;;;;;;;118.38;31.63;;;7.70;99.90;;;;;;5044773;28;20067;-66
2022/12/21 08:59:08;;;;;;;144.48;34.30;;;7.60;99.90;;;;;;5049476;28;20053;-66
2022/12/21 09:01:35;;;;;;;118.25;30.95;;;7.70;99.90;;;;;;5051607;28;20049;-67
2022/12/21 09:04:02;;;;;;;110.43;32.88;;;7.80;99.90;;;;;;5041421;28;20037;-66
2022/12/21 09:06:28;;;;;;;111.90;30.73;;;7.60;99.90;;;;;;5036005;28;20556;-67
2022/12/21 09:08:54;;;;;;;114.50;33.10;;;7.60;99.90;;;;;;5058275;28;20108;-66
2022/12/21 09:11:22;;;;;;;109.45;32.03;;;7.90;99.90;;;;;;5066040;28;20109;-66
2022/12/21 09:13:48;;;;;;;120.70;30.88;;;7.90;99.90;;;;;;5076704;28;20045;-66
2022/12/21 09:16:18;;;;;;;112.45;34.55;;;7.70;99.90;;;;;;5035805;28;20052;-67
2022/12/21 09:18:44;;;;;;;116.35;32.45;;;7.90;99.90;;;;;;5031761;28;20045;-67
2022/12/21 09:21:15;;;;;;;116.45;32.33;;;7.90;99.90;;;;;;5082040;28;20123;-66
2022/12/21 09:23:41;;;;;;;111.03;32.15;;;7.80;99.90;;;;;;5069601;28;20048;-67
2022/12/21 09:26:07;;;;;;;117.90;33.25;;;7.80;99.90;;;;;;5065646;28;20607;-67
2022/12/21 09:28:34;;;;;;;102.00;28.23;;;8.00;99.90;;;;;;5049221;28;20041;-67
2022/12/21 09:31:15;;;;;;;114.18;32.70;;;8.00;99.90;;;;;;5058847;28;20048;-66
2022/12/21 09:33:41;;;;;;;91.68;30.60;;;7.90;99.90;;;;;;5055566;28;20696;-67
2022/12/21 09:36:09;;;;;;;101.85;31.05;;;8.00;99.90;;;;;;5060734;28;20114;-67
2022/12/21 09:38:35;;;;;;;95.53;29.70;;;8.10;99.90;;;;;;5030546;28;20049;-67
2022/12/21 09:41:06;;;;;;;117.70;33.47;;;8.10;99.90;;;;;;5062652;28;20048;-65
2022/12/21 09:43:39;;;;;;;93.95;30.27;;;8.00;99.90;;;;;;5032190;28;20042;-65
2022/12/21 09:46:07;;;;;;;107.93;33.88;;;7.90;99.90;;;;;;5044096;28;20049;-66
2022/12/21 09:48:39;;;;;;;98.50;29.77;;;8.00;99.90;;;;;;5042711;28;20064;-66
2022/12/21 09:51:27;;;;;;;105.75;31.60;;;8.10;99.90;;;;;;5043556;28;20045;-66
2022/12/21 09:54:15;;;;;;;98.78;32.13;;;8.00;99.90;;;;;;5026269;28;20061;-66
2022/12/21 09:56:45;;;;;;;100.65;32.47;;;8.10;99.90;;;;;;5031685;28;20554;-66
2022/12/21 09:59:13;;;;;;;101.97;32.20;;;8.00;99.90;;;;;;5031924;28;20045;-66
2022/12/21 10:01:53;;;;;;;91.15;30.95;;;8.10;99.90;;;;;;5023845;28;20076;-66
2022/12/21 10:05:06;;;;;;;92.47;31.40;;;8.20;99.90;;;;;;5037152;28;20037;-65
2022/12/21 10:07:47;;;;;;;87.95;30.92;;;8.00;99.90;;;;;;5037754;28;20045;-66
2022/12/21 10:10:30;;;;;;;87.75;32.58;;;7.90;99.90;;;;;;5050334;28;20064;-66
2022/12/21 10:13:07;;;;;;;92.38;31.05;;;8.10;99.90;;;;;;5030771;28;20124;-66
2022/12/21 10:15:51;;;;;;;101.57;33.85;;;8.10;99.90;;;;;;5036010;28;20413;-66
2022/12/21 10:18:47;;;;;;;84.88;31.13;;;8.00;99.90;;;;;;5033452;28;20088;-67
2022/12/21 10:21:46;;;;;;;91.45;31.73;;;8.00;99.90;;;;;;5022183;28;20053;-66
2022/12/21 10:24:34;;;;;;;88.75;31.35;;;7.90;99.90;;;;;;5014508;28;20053;-66
2022/12/21 10:27:15;;;;;;;91.93;30.23;;;8.10;99.90;;;;;;5025496;28;20049;-63
2022/12/21 10:29:46;;;;;;;77.32;29.17;;;8.00;99.90;;;;;;5051540;28;20197;-65
2022/12/21 10:32:13;;;;;;;85.72;30.10;;;8.00;99.90;;;;;;5041242;28;20057;-65
2022/12/21 10:34:46;;;;;;;81.35;31.45;;;8.10;99.90;;;;;;5039105;28;20097;-65
2022/12/21 10:37:22;;;;;;;82.55;29.35;;;8.10;99.90;;;;;;5020514;28;20052;-65
2022/12/21 10:39:55;;;;;;;80.95;28.92;;;8.20;99.90;;;;;;5028878;28;21485;-66
2022/12/21 10:42:38;;;;;;;77.97;28.52;;;8.10;99.90;;;;;;5043975;28;20092;-66
2022/12/21 10:45:05;;;;;;;74.13;28.65;;;8.20;99.90;;;;;;5054382;28;20067;-66
2022/12/21 10:47:31;;;;;;;69.55;27.00;;;8.20;99.90;;;;;;5041161;28;20048;-65
2022/12/21 10:50:06;;;;;;;77.72;28.20;;;8.20;99.90;;;;;;5071895;28;20037;-66
2022/12/21 10:52:42;;;;;;;75.28;29.08;;;8.10;99.90;;;;;;5045401;28;20041;-66
2022/12/21 10:55:17;;;;;;;66.82;24.88;;;8.10;99.90;;;;;;5068141;28;20036;-66
2022/12/21 10:58:07;;;;;;;65.78;26.05;;;8.30;99.90;;;;;;5038429;28;20048;-65
2022/12/21 11:00:35;;;;;;;;;;;8.10;99.90;;;;;;5048988;28;20108;-66
2022/12/21 11:03:04;;;;;;;67.60;24.25;;;8.10;99.90;;;;;;5051186;28;19942;-66
2022/12/21 11:05:42;;;;;;;67.05;26.95;;;8.20;99.90;;;;;;5046406;28;20048;-65
2022/12/21 11:08:19;;;;;;;66.72;27.13;;;8.20;99.90;;;;;;5042066;28;20061;-66
2022/12/21 11:10:47;;;;;;;68.20;26.90;;;8.30;99.90;;;;;;5077447;28;20043;-65
2022/12/21 11:13:15;;;;;;;67.18;26.73;;;8.30;99.90;;;;;;5056201;28;20051;-65
2022/12/21 11:15:52;;;;;;;61.47;26.10;;;8.40;99.90;;;;;;5052532;28;20477;-65
2022/12/21 11:18:46;;;;;;;67.60;27.38;;;8.60;99.90;;;;;;5035035;28;20042;-65
2022/12/21 11:21:25;;;;;;;61.38;26.15;;;8.50;99.90;;;;;;5057928;28;20045;-65
2022/12/21 11:23:56;;;;;;;58.40;25.45;;;8.60;99.90;;;;;;5044278;28;20061;-65
2022/12/21 11:26:28;;;;;;;62.72;26.42;;;8.60;99.90;;;;;;5039359;28;20048;-70
2022/12/21 11:29:05;;;;;;;53.63;23.60;;;8.60;99.90;;;;;;5045520;28;20053;-66
2022/12/21 11:31:32;;;;;;;56.85;24.05;;;8.70;99.90;;;;;;5079289;28;20052;-66
2022/12/21 11:33:58;;;;;;;58.78;25.40;;;8.60;99.90;;;;;;5034161;28;20041;-66
2022/12/21 11:36:23;;;;;;;58.10;23.85;;;8.70;99.90;;;;;;5062328;28;20048;-66
2022/12/21 11:38:49;;;;;;;59.95;23.00;;;8.60;99.90;;;;;;5055559;28;20120;-66
2022/12/21 11:41:22;;;;;;;56.45;24.45;;;8.80;99.90;;;;;;5044499;28;20603;-66
2022/12/21 11:43:49;;;;;;;54.03;24.33;;;8.70;99.90;;;;;;5029752;28;20131;-66
2022/12/21 11:46:33;;;;;;;74.47;25.95;;;8.70;99.90;;;;;;5056022;28;20048;-66
2022/12/21 11:48:59;;;;;;;53.33;23.83;;;8.60;99.90;;;;;;5046900;28;20060;-66
2022/12/21 11:51:33;;;;;;;63.95;25.50;;;8.60;99.90;;;;;;5073906;28;20044;-67
2022/12/21 11:54:14;;;;;;;57.13;23.65;;;8.80;99.90;;;;;;5047628;28;20052;-66
2022/12/21 11:56:46;;;;;;;58.40;24.25;;;8.80;99.90;;;;;;5071470;28;20218;-66
2022/12/21 11:59:42;;;;;;;64.10;25.88;;;8.80;99.90;;;;;;5047861;28;20154;-66
2022/12/21 12:02:38;;;;;;;56.75;23.50;;;8.80;99.90;;;;;;5051529;28;20463;-66
2022/12/21 12:05:33;;;;;;;62.33;25.88;;;9.00;99.90;;;;;;5049368;28;20136;-66
2022/12/21 12:08:18;;;;;;;63.08;26.77;;;8.80;99.90;;;;;;5039920;28;20057;-67
2022/12/21 12:11:02;;;;;;;66.78;25.50;;;8.80;99.90;;;;;;5032303;28;20045;-66
2022/12/21 12:14:01;;;;;;;56.83;23.35;;;8.90;99.90;;;;;;5023577;28;20615;-66
2022/12/21 12:16:39;;;;;;;58.35;26.05;;;8.90;99.90;;;;;;5009522;28;20445;-67
2022/12/21 12:19:26;;;;;;;56.08;24.08;;;8.80;99.90;;;;;;5032888;28;20049;-65
2022/12/21 12:22:26;;;;;;;60.72;24.48;;;8.80;99.90;;;;;;5042391;28;20052;-66
2022/12/21 12:25:10;;;;;;;62.05;26.23;;;9.00;99.90;;;;;;5026773;28;20049;-65
2022/12/21 12:27:41;;;;;;;63.63;25.77;;;8.90;99.90;;;;;;5039766;28;20062;-65
2022/12/21 12:30:20;;;;;;;58.20;26.08;;;8.90;99.90;;;;;;5047859;28;20040;-65
2022/12/21 12:33:19;;;;;;;61.13;25.75;;;8.90;99.90;;;;;;5040285;28;20125;-66
2022/12/21 12:35:54;;;;;;;59.60;26.20;;;8.90;99.90;;;;;;5065513;28;20044;-66
2022/12/21 12:38:41;;;;;;;60.38;25.85;;;8.90;99.90;;;;;;5045719;28;20059;-68
2022/12/21 12:41:27;;;;;;;73.35;27.52;;;8.90;99.90;;;;;;5048698;28;20057;-66
2022/12/21 12:44:18;;;;;;;60.58;24.80;;;8.80;99.90;;;;;;5052709;28;20060;-66
2022/12/21 12:46:54;;;;;;;59.42;26.35;;;9.00;99.90;;;;;;5052815;28;20041;-66
2022/12/21 12:49:42;;;;;;;58.60;25.33;;;9.00;99.90;;;;;;5036394;28;20048;-66
2022/12/21 12:52:27;;;;;;;60.45;25.38;;;9.00;99.90;;;;;;5046785;28;20051;-66
2022/12/21 12:55:24;;;;;;;63.72;29.13;;;9.10;99.90;;;;;;5056323;28;20080;-67
2022/12/21 12:58:14;;;;;;;61.35;26.60;;;9.00;99.90;;;;;;5043011;28;20092;-66
2022/12/21 13:01:01;;;;;;;61.47;27.48;;;8.80;99.90;;;;;;5068463;28;20049;-66